Time,TemperatureF,DewpointF,PressureIn,WindDirection,WindDirectionDegrees,WindSpeedMPH,WindSpeedGustMPH,Humidity,HourlyPrecipIn,Conditions,Clouds,dailyrainin,SoftwareType,DateUTC
2013-08-16 00:01:00,67.6,65.2,27.22,SW,225,2.3,2.3,92,0.00,RA,,0.00,WeatherDisplay:10.37,2013-08-16 05:01:00,
2013-08-16 00:06:00,67.6,65.2,27.22,SW,225,0.0,0.0,92,0.00,RA,,0.00,WeatherDisplay:10.37,2013-08-16 05:06:00,
2013-08-16 00:11:00,67.6,65.5,27.22,South,180,0.0,0.7,93,0.00,CLR,,0.00,WeatherDisplay:10.37,2013-08-16 05:11:00,
2013-08-16 00:19:00,67.5,65.4,27.22,West,270,1.1,0.0,93,0.00,CLR,,0.00,WeatherDisplay:10.37,2013-08-16 05:19:00,
2013-08-16 00:24:00,67.5,65.7,27.22,SW,225,2.3,2.3,94,0.00,CLR,,0.00,WeatherDisplay:10.37,2013-08-16 05:24:00,
2013-08-16 00:29:00,67.3,65.5,27.22,South,180,1.1,0.0,94,0.00,CLR,,0.00,WeatherDisplay:10.37,2013-08-16 05:29:00,
2013-08-16 00:34:00,67.3,65.5,27.22,South,180,1.1,0.0,94,0.00,CLR,,0.00,WeatherDisplay:10.37,2013-08-16 05:34:00,
2013-08-16 00:39:00,67.1,65.3,27.22,East,90,0.0,0.0,94,0.00,CLR,,0.00,WeatherDisplay:10.37,2013-08-16 05:39:00,
2013-08-16 00:44:00,67.1,65.3,27.22,SE,135,2.3,2.3,94,0.00,CLR,,0.00,WeatherDisplay:10.37,2013-08-16 05:44:00,
2013-08-16 00:49:00,66.9,65.1,27.22,SE,135,2.3,0.0,94,0.00,CLR,,0.00,WeatherDisplay:10.37,2013-08-16 05:49:00,
2013-08-16 00:54:00,66.7,65.3,27.22,SW,225,1.1,0.0,95,0.00,CLR,,0.00,WeatherDisplay:10.37,2013-08-16 05:54:00,
2013-08-16 00:59:00,66.9,65.4,27.22,SW,225,0.0,0.0,95,0.00,CLR,,0.00,WeatherDisplay:10.37,2013-08-16 05:59:00,
2013-08-16 01:04:00,66.9,65.4,27.22,SW,225,0.0,0.0,95,0.00,CLR,,0.00,WeatherDisplay:10.37,2013-08-16 06:04:00,
2013-08-16 01:09:00,67.1,65.6,27.22,South,180,1.1,1.1,95,0.00,CLR,,0.00,WeatherDisplay:10.37,2013-08-16 06:09:00,
2013-08-16 01:14:00,67.1,65.6,27.22,SW,225,3.5,3.5,95,0.00,CLR,,0.00,WeatherDisplay:10.37,2013-08-16 06:14:00,
2013-08-16 01:19:00,67.3,65.8,27.22,North,0,1.1,1.1,95,0.00,CLR,,0.00,WeatherDisplay:10.37,2013-08-16 06:19:00,
2013-08-16 01:24:00,67.3,65.8,27.22,NW,315,3.5,0.0,95,0.00,CLR,,0.00,WeatherDisplay:10.37,2013-08-16 06:24:00,
2013-08-16 01:29:00,67.3,65.8,27.22,East,90,1.1,0.0,95,0.00,CLR,,0.00,WeatherDisplay:10.37,2013-08-16 06:29:00,
2013-08-16 01:34:00,67.3,66.1,27.22,WSW,248,2.3,0.0,96,0.00,CLR,,0.00,WeatherDisplay:10.37,2013-08-16 06:34:00,
2013-08-16 01:39:00,67.3,66.1,27.22,NE,45,2.3,0.0,96,0.00,CLR,,0.00,WeatherDisplay:10.37,2013-08-16 06:39:00,
2013-08-16 01:44:00,67.3,66.1,27.22,SW,225,1.1,0.0,96,0.00,CLR,,0.00,WeatherDisplay:10.37,2013-08-16 06:44:00,
2013-08-16 01:49:00,67.3,66.1,27.21,East,90,0.0,0.0,96,0.00,CLR,,0.00,WeatherDisplay:10.37,2013-08-16 06:49:00,
2013-08-16 01:55:00,67.3,66.1,27.22,NE,45,0.0,0.0,96,0.00,CLR,,0.00,WeatherDisplay:10.37,2013-08-16 06:55:00,
2013-08-16 02:00:00,67.5,66.3,27.21,South,180,0.0,0.0,96,0.00,CLR,,0.00,WeatherDisplay:10.37,2013-08-16 07:00:00,
2013-08-16 02:05:00,67.5,66.3,27.22,East,90,1.1,0.0,96,0.00,CLR,,0.00,WeatherDisplay:10.37,2013-08-16 07:05:00,
2013-08-16 02:10:00,67.5,66.3,27.21,SE,135,1.1,0.0,96,0.00,CLR,,0.00,WeatherDisplay:10.37,2013-08-16 07:10:00,
2013-08-16 02:15:00,67.5,66.3,27.22,NE,45,2.3,0.0,96,0.00,CLR,,0.00,WeatherDisplay:10.37,2013-08-16 07:15:00,
2013-08-16 02:20:00,67.5,66.3,27.21,South,180,1.1,0.0,96,0.00,CLR,,0.00,WeatherDisplay:10.37,2013-08-16 07:20:00,
2013-08-16 02:25:00,67.5,66.3,27.21,NW,315,1.1,0.0,96,0.00,CLR,,0.00,WeatherDisplay:10.37,2013-08-16 07:25:00,
2013-08-16 02:30:00,67.5,66.0,27.21,NW,315,1.1,0.0,95,0.00,CLR,,0.00,WeatherDisplay:10.37,2013-08-16 07:30:00,
2013-08-16 02:35:00,67.5,66.0,27.21,South,180,1.6,0.0,95,0.00,CLR,,0.00,WeatherDisplay:10.37,2013-08-16 07:35:00,
2013-08-16 02:40:00,67.6,66.2,27.21,NE,45,0.0,0.0,95,0.00,CLR,,0.00,WeatherDisplay:10.37,2013-08-16 07:40:00,
2013-08-16 02:45:00,67.6,66.2,27.20,East,90,2.3,0.0,95,0.00,CLR,,0.00,WeatherDisplay:10.37,2013-08-16 07:45:00,
2013-08-16 02:50:00,67.6,66.2,27.21,North,0,1.1,0.0,95,0.00,CLR,,0.00,WeatherDisplay:10.37,2013-08-16 07:50:00,
2013-08-16 02:55:00,67.6,66.2,27.21,West,270,1.1,0.0,95,0.00,CLR,,0.00,WeatherDisplay:10.37,2013-08-16 07:55:00,
2013-08-16 03:00:00,67.6,66.2,27.21,North,0,0.0,0.0,95,0.00,CLR,,0.00,WeatherDisplay:10.37,2013-08-16 08:00:00,
2013-08-16 03:05:00,67.6,66.2,27.21,NE,45,0.0,0.0,95,0.00,CLR,,0.00,WeatherDisplay:10.37,2013-08-16 08:05:00,
2013-08-16 03:10:00,67.6,66.2,27.21,NE,45,1.1,0.0,95,0.00,CLR,,0.00,WeatherDisplay:10.37,2013-08-16 08:10:00,
2013-08-16 03:15:00,67.6,66.2,27.21,West,270,1.1,1.1,95,0.00,CLR,,0.00,WeatherDisplay:10.37,2013-08-16 08:15:00,
2013-08-16 03:20:00,67.6,66.2,27.21,East,90,1.1,0.0,95,0.00,CLR,,0.00,WeatherDisplay:10.37,2013-08-16 08:20:00,
2013-08-16 03:25:00,67.6,66.2,27.21,NNW,338,1.1,1.1,95,0.00,CLR,,0.00,WeatherDisplay:10.37,2013-08-16 08:25:00,
2013-08-16 03:30:00,67.6,66.2,27.21,East,90,1.1,0.0,95,0.00,CLR,,0.00,WeatherDisplay:10.37,2013-08-16 08:30:00,
2013-08-16 03:35:00,67.8,66.3,27.21,SE,135,1.1,0.0,95,0.00,CLR,,0.00,WeatherDisplay:10.37,2013-08-16 08:35:00,
2013-08-16 03:40:00,67.8,66.3,27.21,North,0,0.0,0.0,95,0.00,CLR,,0.00,WeatherDisplay:10.37,2013-08-16 08:40:00,
2013-08-16 03:45:00,67.8,66.3,27.21,East,90,3.5,3.5,95,0.00,CLR,,0.00,WeatherDisplay:10.37,2013-08-16 08:45:00,
2013-08-16 03:50:00,67.8,66.3,27.21,NE,45,1.1,0.0,95,0.00,CLR,,0.00,WeatherDisplay:10.37,2013-08-16 08:50:00,
2013-08-16 03:55:00,67.8,66.3,27.21,East,90,1.1,0.0,95,0.00,CLR,,0.00,WeatherDisplay:10.37,2013-08-16 08:55:00,
2013-08-16 04:00:00,67.8,66.3,27.20,East,90,3.5,3.5,95,0.00,CLR,,0.00,WeatherDisplay:10.37,2013-08-16 09:00:00,
2013-08-16 04:05:00,67.8,66.3,27.21,SE,135,1.1,0.0,95,0.00,CLR,,0.00,WeatherDisplay:10.37,2013-08-16 09:05:00,
2013-08-16 04:10:00,67.8,66.3,27.20,West,270,1.1,0.0,95,0.00,CLR,,0.00,WeatherDisplay:10.37,2013-08-16 09:10:00,
2013-08-16 04:15:00,67.8,66.3,27.21,NE,45,0.0,0.0,95,0.00,CLR,,0.00,WeatherDisplay:10.37,2013-08-16 09:15:00,
2013-08-16 04:20:00,67.6,66.2,27.20,NE,45,2.3,0.0,95,0.00,CLR,,0.00,WeatherDisplay:10.37,2013-08-16 09:20:00,
2013-08-16 04:25:00,67.6,66.2,27.20,East,90,1.1,0.0,95,0.00,CLR,,0.00,WeatherDisplay:10.37,2013-08-16 09:25:00,
2013-08-16 04:30:00,67.6,66.2,27.21,North,0,1.1,0.0,95,0.00,CLR,,0.00,WeatherDisplay:10.37,2013-08-16 09:30:00,
2013-08-16 04:35:00,67.6,66.2,27.21,NE,45,2.3,0.0,95,0.00,CLR,,0.00,WeatherDisplay:10.37,2013-08-16 09:35:00,
2013-08-16 04:40:00,67.6,66.2,27.21,East,90,1.1,0.0,95,0.00,CLR,,0.00,WeatherDisplay:10.37,2013-08-16 09:40:00,
2013-08-16 04:45:00,67.6,66.2,27.21,NE,45,0.0,0.0,95,0.00,CLR,,0.00,WeatherDisplay:10.37,2013-08-16 09:45:00,
2013-08-16 04:50:00,67.6,66.2,27.21,South,180,1.1,1.1,95,0.00,CLR,,0.00,WeatherDisplay:10.37,2013-08-16 09:50:00,
2013-08-16 04:55:00,67.5,66.0,27.21,North,0,1.1,0.0,95,0.00,CLR,,0.00,WeatherDisplay:10.37,2013-08-16 09:55:00,
2013-08-16 05:00:00,67.5,66.0,27.21,East,90,2.3,2.3,95,0.00,CLR,,0.00,WeatherDisplay:10.37,2013-08-16 10:00:00,
2013-08-16 05:05:00,67.5,66.0,27.21,East,90,2.3,2.3,95,0.00,CLR,,0.00,WeatherDisplay:10.37,2013-08-16 10:05:00,
2013-08-16 05:10:00,67.5,66.0,27.21,NW,315,1.1,1.1,95,0.00,CLR,,0.00,WeatherDisplay:10.37,2013-08-16 10:10:00,
2013-08-16 05:15:00,67.5,66.0,27.22,North,0,0.0,0.0,95,0.00,CLR,,0.00,WeatherDisplay:10.37,2013-08-16 10:15:00,
2013-08-16 05:20:00,67.5,66.0,27.21,NE,45,1.1,0.0,95,0.00,CLR,,0.00,WeatherDisplay:10.37,2013-08-16 10:20:00,
2013-08-16 05:25:00,67.3,65.8,27.21,East,90,1.1,0.0,95,0.00,CLR,,0.00,WeatherDisplay:10.37,2013-08-16 10:25:00,
2013-08-16 05:30:00,67.3,65.8,27.21,North,0,1.1,0.0,95,0.00,CLR,,0.00,WeatherDisplay:10.37,2013-08-16 10:30:00,
2013-08-16 05:35:00,67.3,65.8,27.21,East,90,0.0,0.0,95,0.00,CLR,,0.00,WeatherDisplay:10.37,2013-08-16 10:35:00,
2013-08-16 05:40:00,67.3,65.8,27.21,SW,225,0.0,0.0,95,0.00,CLR,,0.00,WeatherDisplay:10.37,2013-08-16 10:40:00,
2013-08-16 05:45:00,67.3,65.8,27.21,NE,45,0.0,0.0,95,0.00,CLR,,0.00,WeatherDisplay:10.37,2013-08-16 10:45:00,
2013-08-16 05:50:00,67.3,65.8,27.21,NW,315,0.0,0.0,95,0.00,CLR,,0.00,WeatherDisplay:10.37,2013-08-16 10:50:00,
2013-08-16 05:55:00,67.3,65.8,27.21,SE,135,1.1,0.0,95,0.00,CLR,,0.00,WeatherDisplay:10.37,2013-08-16 10:55:00,
2013-08-16 06:00:00,67.1,65.6,27.21,North,0,1.1,0.0,95,0.00,CLR,,0.00,WeatherDisplay:10.37,2013-08-16 11:00:00,
2013-08-16 06:05:00,67.1,65.6,27.21,East,90,1.1,0.0,95,0.00,CLR,,0.00,WeatherDisplay:10.37,2013-08-16 11:05:00,
2013-08-16 06:10:00,67.1,65.6,27.22,East,90,0.0,0.0,95,0.00,CLR,,0.00,WeatherDisplay:10.37,2013-08-16 11:10:00,
2013-08-16 06:15:00,67.1,65.6,27.21,NE,45,0.0,0.0,95,0.00,CLR,,0.00,WeatherDisplay:10.37,2013-08-16 11:15:00,
2013-08-16 06:20:00,67.1,65.6,27.21,SW,225,1.1,0.0,95,0.00,CLR,,0.00,WeatherDisplay:10.37,2013-08-16 11:20:00,
2013-08-16 06:25:00,67.1,65.6,27.21,West,270,0.0,0.0,95,0.00,CLR,,0.00,WeatherDisplay:10.37,2013-08-16 11:25:00,
2013-08-16 06:30:00,67.1,65.6,27.22,SW,225,1.1,0.0,95,0.00,CLR,,0.00,WeatherDisplay:10.37,2013-08-16 11:30:00,
2013-08-16 06:35:00,67.1,65.6,27.22,SE,135,1.1,0.0,95,0.00,CLR,,0.00,WeatherDisplay:10.37,2013-08-16 11:35:00,
2013-08-16 06:40:00,67.1,65.6,27.22,East,90,1.1,0.0,95,0.00,CLR,,0.00,WeatherDisplay:10.37,2013-08-16 11:40:00,
2013-08-16 06:45:00,67.1,65.6,27.22,SE,135,1.1,0.0,95,0.00,CLR,,0.00,WeatherDisplay:10.37,2013-08-16 11:45:00,
2013-08-16 06:50:00,67.1,65.6,27.22,SW,225,1.1,1.1,95,0.00,CLR,,0.00,WeatherDisplay:10.37,2013-08-16 11:50:00,
2013-08-16 06:55:00,66.9,65.4,27.22,SE,135,3.5,0.0,95,0.00,CLR,,0.00,WeatherDisplay:10.37,2013-08-16 11:55:00,
2013-08-16 07:00:00,66.9,65.4,27.22,SE,135,1.1,0.0,95,0.00,CLR,,0.00,WeatherDisplay:10.37,2013-08-16 12:00:00,
2013-08-16 07:05:00,66.9,65.4,27.22,SE,135,1.1,0.0,95,0.00,CLR,,0.00,WeatherDisplay:10.37,2013-08-16 12:05:00,
2013-08-16 07:10:00,66.9,65.4,27.22,SE,135,1.1,0.0,95,0.00,CLR,,0.00,WeatherDisplay:10.37,2013-08-16 12:10:00,
2013-08-16 07:15:00,66.9,65.4,27.22,SW,225,3.5,3.5,95,0.00,CLR,,0.00,WeatherDisplay:10.37,2013-08-16 12:15:00,
2013-08-16 07:20:00,66.9,65.4,27.22,NW,315,1.1,1.1,95,0.00,CLR,,0.00,WeatherDisplay:10.37,2013-08-16 12:20:00,
2013-08-16 07:25:00,66.9,65.4,27.22,NW,315,1.1,0.0,95,0.00,CLR,,0.00,WeatherDisplay:10.37,2013-08-16 12:25:00,
2013-08-16 07:31:00,66.9,65.4,27.23,SW,225,1.1,1.1,95,0.00,CLR,,0.00,WeatherDisplay:10.37,2013-08-16 12:31:00,
2013-08-16 07:36:00,66.9,65.4,27.23,South,180,1.1,0.0,95,0.00,CLR,,0.00,WeatherDisplay:10.37,2013-08-16 12:36:00,
2013-08-16 07:41:00,66.9,65.4,27.23,SE,135,1.1,0.0,95,0.00,CLR,,0.00,WeatherDisplay:10.37,2013-08-16 12:41:00,
2013-08-16 07:46:00,66.9,65.4,27.23,South,180,1.1,0.0,95,0.00,CLR,,0.00,WeatherDisplay:10.37,2013-08-16 12:46:00,
2013-08-16 07:51:00,67.1,65.6,27.23,South,180,1.6,0.0,95,0.00,CLR,,0.00,WeatherDisplay:10.37,2013-08-16 12:51:00,
2013-08-16 07:56:00,67.1,65.6,27.23,East,90,1.1,0.0,95,0.00,CLR,,0.00,WeatherDisplay:10.37,2013-08-16 12:56:00,
2013-08-16 08:01:00,67.3,65.8,27.23,SW,225,2.2,2.2,95,0.00,CLR,,0.00,WeatherDisplay:10.37,2013-08-16 13:01:00,
2013-08-16 08:06:00,67.3,65.8,27.23,West,270,1.1,0.0,95,0.00,CLR,,0.00,WeatherDisplay:10.37,2013-08-16 13:06:00,
2013-08-16 08:11:00,67.3,65.8,27.23,South,180,2.3,2.3,95,0.00,CLR,,0.00,WeatherDisplay:10.37,2013-08-16 13:11:00,
2013-08-16 08:16:00,67.5,66.0,27.23,South,180,1.1,0.0,95,0.00,CLR,,0.00,WeatherDisplay:10.37,2013-08-16 13:16:00,
2013-08-16 08:21:00,67.5,66.0,27.23,South,180,1.1,0.0,95,0.00,CLR,,0.00,WeatherDisplay:10.37,2013-08-16 13:21:00,
2013-08-16 08:26:00,67.6,66.2,27.23,West,270,0.0,0.0,95,0.00,CLR,,0.00,WeatherDisplay:10.37,2013-08-16 13:26:00,
2013-08-16 08:31:00,67.6,66.2,27.24,NW,315,1.1,0.0,95,0.00,CLR,,0.00,WeatherDisplay:10.37,2013-08-16 13:31:00,
2013-08-16 08:36:00,67.6,66.2,27.24,SE,135,2.3,2.3,95,0.00,CLR,,0.00,WeatherDisplay:10.37,2013-08-16 13:36:00,
2013-08-16 08:41:00,67.8,66.3,27.24,SW,225,0.0,0.0,95,0.00,CLR,,0.00,WeatherDisplay:10.37,2013-08-16 13:41:00,
2013-08-16 08:46:00,67.8,66.3,27.24,SE,135,1.1,0.0,95,0.00,CLR,,0.00,WeatherDisplay:10.37,2013-08-16 13:46:00,
2013-08-16 08:51:00,68.0,66.2,27.24,North,0,1.1,0.0,94,0.00,CLR,,0.00,WeatherDisplay:10.37,2013-08-16 13:51:00,
2013-08-16 08:56:00,68.0,66.2,27.25,SE,135,1.1,0.0,94,0.00,CLR,,0.00,WeatherDisplay:10.37,2013-08-16 13:56:00,
2013-08-16 09:01:00,68.2,66.4,27.24,SE,135,1.1,1.1,94,0.00,CLR,,0.00,WeatherDisplay:10.37,2013-08-16 14:01:00,
2013-08-16 09:06:00,68.2,66.4,27.24,SE,135,1.6,1.6,94,0.00,CLR,,0.00,WeatherDisplay:10.37,2013-08-16 14:06:00,
2013-08-16 09:11:00,68.5,66.4,27.24,NNW,338,1.1,0.0,93,0.00,CLR,,0.00,WeatherDisplay:10.37,2013-08-16 14:11:00,
2013-08-16 09:16:00,68.7,66.6,27.24,SE,135,1.6,1.6,93,0.00,CLR,,0.00,WeatherDisplay:10.37,2013-08-16 14:16:00,
2013-08-16 09:21:00,69.1,67.0,27.24,SE,135,2.3,0.0,93,0.00,CLR,,0.00,WeatherDisplay:10.37,2013-08-16 14:21:00,
2013-08-16 09:26:00,69.3,67.1,27.24,SW,225,1.1,0.0,93,0.00,CLR,,0.00,WeatherDisplay:10.37,2013-08-16 14:26:00,
2013-08-16 09:31:00,69.3,66.8,27.24,NE,45,1.1,0.0,92,0.00,CLR,,0.00,WeatherDisplay:10.37,2013-08-16 14:31:00,
2013-08-16 09:36:00,69.4,66.7,27.24,East,90,2.3,0.0,91,0.00,CLR,,0.00,WeatherDisplay:10.37,2013-08-16 14:36:00,
2013-08-16 09:41:00,69.6,66.9,27.24,SW,225,1.1,0.0,91,0.00,CLR,,0.00,WeatherDisplay:10.37,2013-08-16 14:41:00,
2013-08-16 09:46:00,70.0,66.6,27.24,West,270,3.5,3.5,89,0.00,CLR,,0.00,WeatherDisplay:10.37,2013-08-16 14:46:00,
2013-08-16 09:51:00,70.2,66.4,27.24,South,180,1.1,1.1,88,0.00,CLR,,0.00,WeatherDisplay:10.37,2013-08-16 14:51:00,
2013-08-16 09:56:00,70.5,66.8,27.25,SW,225,2.3,2.3,88,0.00,CLR,,0.00,WeatherDisplay:10.37,2013-08-16 14:56:00,
2013-08-16 10:01:00,70.5,66.5,27.24,SE,135,1.1,0.0,87,0.00,CLR,,0.00,WeatherDisplay:10.37,2013-08-16 15:01:00,
2013-08-16 10:06:00,70.3,66.0,27.24,North,0,1.1,1.1,86,0.00,CLR,,0.00,WeatherDisplay:10.37,2013-08-16 15:06:00,
2013-08-16 10:11:00,70.3,66.0,27.25,South,180,1.1,1.1,86,0.00,CLR,,0.00,WeatherDisplay:10.37,2013-08-16 15:11:00,
2013-08-16 10:16:00,70.7,66.3,27.25,South,180,2.3,2.3,86,0.00,CLR,,0.00,WeatherDisplay:10.37,2013-08-16 15:16:00,
2013-08-16 10:21:00,71.1,66.7,27.25,SSW,202,1.1,0.0,86,0.00,CLR,,0.00,WeatherDisplay:10.37,2013-08-16 15:21:00,
2013-08-16 10:26:00,71.4,66.7,27.25,South,180,2.3,2.3,85,0.00,CLR,,0.00,WeatherDisplay:10.37,2013-08-16 15:26:00,
2013-08-16 10:31:00,71.8,66.3,27.25,East,90,3.5,3.5,83,0.00,CLR,,0.00,WeatherDisplay:10.37,2013-08-16 15:31:00,
2013-08-16 10:36:00,72.1,66.3,27.25,SSW,202,3.5,3.5,82,0.00,CLR,,0.00,WeatherDisplay:10.37,2013-08-16 15:36:00,
2013-08-16 10:41:00,72.5,66.3,27.24,SE,135,1.1,1.1,81,0.00,CLR,,0.00,WeatherDisplay:10.37,2013-08-16 15:41:00,
2013-08-16 10:46:00,72.9,66.3,27.25,SE,135,2.3,2.3,80,0.00,CLR,,0.00,WeatherDisplay:10.37,2013-08-16 15:46:00,
2013-08-16 10:51:00,73.4,67.2,27.24,South,180,5.8,5.8,81,0.00,CLR,,0.00,WeatherDisplay:10.37,2013-08-16 15:51:00,
2013-08-16 10:56:00,74.3,67.4,27.25,South,180,4.6,4.6,79,0.00,CLR,,0.00,WeatherDisplay:10.37,2013-08-16 15:56:00,
2013-08-16 11:01:00,74.3,66.6,27.24,East,90,1.1,1.1,77,0.00,CLR,,0.00,WeatherDisplay:10.37,2013-08-16 16:01:00,
2013-08-16 11:06:00,74.3,66.6,27.25,East,90,1.1,1.1,77,0.00,CLR,,0.00,WeatherDisplay:10.37,2013-08-16 16:06:00,
2013-08-16 11:11:00,75.2,66.7,27.25,NE,45,3.5,3.5,75,0.00,CLR,,0.00,WeatherDisplay:10.37,2013-08-16 16:11:00,
2013-08-16 11:16:00,75.7,67.2,27.25,NW,315,3.5,3.5,75,0.00,CLR,,0.00,WeatherDisplay:10.37,2013-08-16 16:16:00,
2013-08-16 11:21:00,75.9,67.4,27.25,South,180,3.5,3.5,75,0.00,CLR,,0.00,WeatherDisplay:10.37,2013-08-16 16:21:00,
2013-08-16 11:26:00,76.3,67.4,27.25,East,90,3.8,3.8,74,0.00,CLR,,0.00,WeatherDisplay:10.37,2013-08-16 16:26:00,
2013-08-16 11:31:00,75.9,67.0,27.25,South,180,4.6,4.6,74,0.00,CLR,,0.00,WeatherDisplay:10.37,2013-08-16 16:31:00,
2013-08-16 11:36:00,75.7,66.9,27.25,South,180,5.8,5.8,74,0.00,CLR,,0.00,WeatherDisplay:10.37,2013-08-16 16:36:00,
2013-08-16 11:41:00,76.1,67.2,27.25,SE,135,4.6,4.6,74,0.00,CLR,,0.00,WeatherDisplay:10.37,2013-08-16 16:41:00,
2013-08-16 11:46:00,76.8,67.9,27.25,SSE,158,6.9,6.9,74,0.00,CLR,,0.00,WeatherDisplay:10.37,2013-08-16 16:46:00,
2013-08-16 11:51:00,76.6,66.9,27.25,South,180,4.6,0.0,72,0.00,CLR,,0.00,WeatherDisplay:10.37,2013-08-16 16:51:00,
2013-08-16 11:56:00,76.8,67.9,27.25,NE,45,3.5,3.5,74,0.00,CLR,,0.00,WeatherDisplay:10.37,2013-08-16 16:56:00,
2013-08-16 12:01:00,77.2,67.0,27.26,ESE,112,4.6,0.0,71,0.00,CLR,,0.00,WeatherDisplay:10.37,2013-08-16 17:01:00,
2013-08-16 12:06:00,77.4,68.0,27.26,East,90,3.5,3.5,73,0.00,CLR,,0.00,WeatherDisplay:10.37,2013-08-16 17:06:00,
2013-08-16 12:11:00,77.2,66.2,27.26,SE,135,2.3,2.3,69,0.00,CLR,,0.00,WeatherDisplay:10.37,2013-08-16 17:11:00,
2013-08-16 12:16:00,77.2,67.9,27.26,South,180,2.3,3.1,73,0.00,CLR,,0.00,WeatherDisplay:10.37,2013-08-16 17:16:00,
2013-08-16 12:21:00,77.2,66.6,27.26,East,90,5.8,5.8,70,0.00,CLR,,0.00,WeatherDisplay:10.37,2013-08-16 17:21:00,
2013-08-16 12:26:00,77.2,67.0,27.26,NNW,338,4.6,4.6,71,0.00,CLR,,0.00,WeatherDisplay:10.37,2013-08-16 17:26:00,
2013-08-16 12:31:00,77.5,66.6,27.25,SW,225,5.8,5.8,69,0.00,CLR,,0.00,WeatherDisplay:10.37,2013-08-16 17:31:00,
2013-08-16 12:36:00,78.4,67.8,27.25,NE,45,3.5,3.5,70,0.00,CLR,,0.00,WeatherDisplay:10.37,2013-08-16 17:36:00,
2013-08-16 12:41:00,79.3,66.5,27.25,SSE,158,5.8,5.8,65,0.00,CLR,,0.00,WeatherDisplay:10.37,2013-08-16 17:41:00,
2013-08-16 12:46:00,79.9,67.1,27.25,SW,225,5.8,5.8,65,0.00,CLR,,0.00,WeatherDisplay:10.37,2013-08-16 17:46:00,
2013-08-16 12:51:00,79.3,66.1,27.25,East,90,8.1,8.1,64,0.00,CLR,,0.00,WeatherDisplay:10.37,2013-08-16 17:51:00,
2013-08-16 12:56:00,79.3,66.1,27.25,West,270,3.5,3.5,64,0.00,CLR,,0.00,WeatherDisplay:10.37,2013-08-16 17:56:00,
2013-08-16 13:01:00,79.5,67.6,27.25,North,0,4.6,4.6,67,0.00,CLR,,0.00,WeatherDisplay:10.37,2013-08-16 18:01:00,
2013-08-16 13:06:00,79.5,67.6,27.25,North,0,4.6,4.6,67,0.00,CLR,,0.00,WeatherDisplay:10.37,2013-08-16 18:06:00,
2013-08-16 13:11:00,81.3,66.6,27.24,SE,135,5.8,5.8,61,0.00,CLR,,0.00,WeatherDisplay:10.37,2013-08-16 18:11:00,
2013-08-16 13:17:00,81.1,66.9,27.24,South,180,5.8,5.8,62,0.00,CLR,,0.00,WeatherDisplay:10.37,2013-08-16 18:17:00,
2013-08-16 13:22:00,81.1,66.9,27.24,NE,45,2.3,2.3,62,0.00,CLR,,0.00,WeatherDisplay:10.37,2013-08-16 18:22:00,
2013-08-16 13:27:00,81.1,66.9,27.24,South,180,3.5,3.5,62,0.00,CLR,,0.00,WeatherDisplay:10.37,2013-08-16 18:27:00,
2013-08-16 13:32:00,81.1,66.4,27.24,SE,135,3.5,3.5,61,0.00,CLR,,0.00,WeatherDisplay:10.37,2013-08-16 18:32:00,
2013-08-16 13:37:00,81.3,66.6,27.24,South,180,4.6,4.6,61,0.00,CLR,,0.00,WeatherDisplay:10.37,2013-08-16 18:37:00,
2013-08-16 13:42:00,81.3,66.6,27.24,SSE,158,4.6,4.6,61,0.00,CLR,,0.00,WeatherDisplay:10.37,2013-08-16 18:42:00,
2013-08-16 13:47:00,80.4,66.7,27.24,SSW,202,5.8,5.8,63,0.00,CLR,,0.00,WeatherDisplay:10.37,2013-08-16 18:47:00,
2013-08-16 13:52:00,80.8,67.0,27.24,NW,315,2.3,2.3,63,0.00,CLR,,0.00,WeatherDisplay:10.37,2013-08-16 18:52:00,
2013-08-16 13:57:00,81.5,66.8,27.24,SE,135,3.5,3.5,61,0.00,CLR,,0.00,WeatherDisplay:10.37,2013-08-16 18:57:00,
2013-08-16 14:02:00,81.5,66.3,27.24,West,270,3.5,3.5,60,0.00,CLR,,0.00,WeatherDisplay:10.37,2013-08-16 19:02:00,
2013-08-16 14:07:00,80.8,65.1,27.23,SE,135,6.9,6.9,59,0.00,CLR,,0.00,WeatherDisplay:10.37,2013-08-16 19:07:00,
2013-08-16 14:12:00,80.4,66.2,27.23,NW,315,3.5,3.5,62,0.00,CLR,,0.00,WeatherDisplay:10.37,2013-08-16 19:12:00,
2013-08-16 14:17:00,81.0,66.7,27.23,SSE,158,5.8,5.8,62,0.00,CLR,,0.00,WeatherDisplay:10.37,2013-08-16 19:17:00,
2013-08-16 14:22:00,81.0,65.8,27.23,South,180,5.8,5.8,60,0.00,CLR,,0.00,WeatherDisplay:10.37,2013-08-16 19:22:00,
2013-08-16 14:27:00,81.3,66.6,27.23,East,90,3.5,3.5,61,0.00,CLR,,0.00,WeatherDisplay:10.37,2013-08-16 19:27:00,
2013-08-16 14:32:00,81.5,66.8,27.23,West,270,3.5,3.5,61,0.00,CLR,,0.00,WeatherDisplay:10.37,2013-08-16 19:32:00,
2013-08-16 14:37:00,81.5,65.8,27.23,West,270,3.5,3.5,59,0.00,CLR,,0.00,WeatherDisplay:10.37,2013-08-16 19:37:00,
2013-08-16 14:42:00,81.5,65.8,27.23,SSW,202,1.1,0.0,59,0.00,CLR,,0.00,WeatherDisplay:10.37,2013-08-16 19:42:00,
2013-08-16 14:47:00,81.5,65.3,27.23,South,180,3.5,3.5,58,0.00,CLR,,0.00,WeatherDisplay:10.37,2013-08-16 19:47:00,
2013-08-16 14:52:00,81.9,66.6,27.23,North,0,2.3,2.3,60,0.00,CLR,,0.00,WeatherDisplay:10.37,2013-08-16 19:52:00,
2013-08-16 14:57:00,81.9,65.6,27.23,SE,135,3.5,3.5,58,0.00,CLR,,0.00,WeatherDisplay:10.37,2013-08-16 19:57:00,
2013-08-16 15:02:00,82.2,66.5,27.22,South,180,5.8,5.8,59,0.00,CLR,,0.00,WeatherDisplay:10.37,2013-08-16 20:02:00,
2013-08-16 15:07:00,82.2,66.5,27.22,South,180,5.8,5.8,59,0.00,CLR,,0.00,WeatherDisplay:10.37,2013-08-16 20:07:00,
2013-08-16 15:12:00,81.9,65.1,27.22,NE,45,3.8,3.8,57,0.00,CLR,,0.00,WeatherDisplay:10.37,2013-08-16 20:12:00,
2013-08-16 15:17:00,81.9,65.6,27.22,SW,225,6.9,6.9,58,0.00,CLR,,0.00,WeatherDisplay:10.37,2013-08-16 20:17:00,
2013-08-16 15:22:00,81.9,65.6,27.22,South,180,4.6,4.6,58,0.00,CLR,,0.00,WeatherDisplay:10.37,2013-08-16 20:22:00,
2013-08-16 15:27:00,82.2,65.5,27.22,SE,135,2.3,2.3,57,0.00,CLR,,0.00,WeatherDisplay:10.37,2013-08-16 20:27:00,
2013-08-16 15:32:00,81.9,64.6,27.22,West,270,2.3,2.3,56,0.00,CLR,,0.00,WeatherDisplay:10.37,2013-08-16 20:32:00,
2013-08-16 15:37:00,82.2,66.0,27.22,SW,225,4.6,4.6,58,0.00,CLR,,0.00,WeatherDisplay:10.37,2013-08-16 20:37:00,
2013-08-16 15:42:00,82.2,65.5,27.21,NE,45,1.1,1.6,57,0.00,CLR,,0.00,WeatherDisplay:10.37,2013-08-16 20:42:00,
2013-08-16 15:47:00,82.4,65.1,27.21,SE,135,4.6,4.6,56,0.00,CLR,,0.00,WeatherDisplay:10.37,2013-08-16 20:47:00,
2013-08-16 15:52:00,82.2,65.5,27.21,SW,225,4.6,4.6,57,0.00,CLR,,0.00,WeatherDisplay:10.37,2013-08-16 20:52:00,
2013-08-16 15:57:00,82.2,65.5,27.21,NE,45,3.5,3.5,57,0.00,CLR,,0.00,WeatherDisplay:10.37,2013-08-16 20:57:00,
2013-08-16 16:02:00,82.8,65.5,27.21,West,270,4.6,4.6,56,0.00,CLR,,0.00,WeatherDisplay:10.37,2013-08-16 21:02:00,
2013-08-16 16:07:00,82.2,65.0,27.21,NW,315,1.1,1.1,56,0.00,CLR,,0.00,WeatherDisplay:10.37,2013-08-16 21:07:00,
2013-08-16 16:12:00,81.9,65.6,27.21,East,90,3.5,3.5,58,0.00,CLR,,0.00,WeatherDisplay:10.37,2013-08-16 21:12:00,
2013-08-16 16:17:00,81.9,64.6,27.21,SSE,158,2.3,0.0,56,0.00,CLR,,0.00,WeatherDisplay:10.37,2013-08-16 21:17:00,
2013-08-16 16:22:00,81.9,66.1,27.20,South,180,3.5,3.5,59,0.00,CLR,,0.00,WeatherDisplay:10.37,2013-08-16 21:22:00,
2013-08-16 16:27:00,81.9,65.6,27.20,SW,225,3.5,3.5,58,0.00,CLR,,0.00,WeatherDisplay:10.37,2013-08-16 21:27:00,
2013-08-16 16:32:00,81.9,65.1,27.20,South,180,5.8,5.8,57,0.00,CLR,,0.00,WeatherDisplay:10.37,2013-08-16 21:32:00,
2013-08-16 16:37:00,82.2,65.5,27.21,SW,225,2.3,2.3,57,0.00,CLR,,0.00,WeatherDisplay:10.37,2013-08-16 21:37:00,
2013-08-16 16:42:00,82.2,65.5,27.20,SW,225,3.5,3.5,57,0.00,CLR,,0.00,WeatherDisplay:10.37,2013-08-16 21:42:00,
2013-08-16 16:47:00,82.2,65.5,27.20,East,90,3.5,3.5,57,0.00,CLR,,0.00,WeatherDisplay:10.37,2013-08-16 21:47:00,
2013-08-16 16:52:00,82.2,66.0,27.20,NE,45,3.5,3.5,58,0.00,CLR,,0.00,WeatherDisplay:10.37,2013-08-16 21:52:00,
2013-08-16 16:57:00,82.2,65.0,27.21,SE,135,3.5,3.5,56,0.00,CLR,,0.00,WeatherDisplay:10.37,2013-08-16 21:57:00,
2013-08-16 17:02:00,81.9,65.1,27.20,South,180,2.3,2.3,57,0.00,CLR,,0.00,WeatherDisplay:10.37,2013-08-16 22:02:00,
2013-08-16 17:07:00,81.9,65.1,27.20,South,180,2.3,2.3,57,0.00,CLR,,0.00,WeatherDisplay:10.37,2013-08-16 22:07:00,
2013-08-16 17:12:00,81.9,65.6,27.20,SE,135,3.5,3.5,58,0.00,CLR,,0.00,WeatherDisplay:10.37,2013-08-16 22:12:00,
2013-08-16 17:17:00,81.7,65.5,27.20,South,180,5.8,5.8,58,0.00,CLR,,0.00,WeatherDisplay:10.37,2013-08-16 22:17:00,
2013-08-16 17:22:00,81.7,65.5,27.20,SW,225,4.6,0.0,58,0.00,CLR,,0.00,WeatherDisplay:10.37,2013-08-16 22:22:00,
2013-08-16 17:27:00,81.7,65.5,27.20,SW,225,2.3,2.3,58,0.00,CLR,,0.00,WeatherDisplay:10.37,2013-08-16 22:27:00,
2013-08-16 17:32:00,81.1,65.5,27.20,East,90,4.6,4.6,59,0.00,CLR,,0.00,WeatherDisplay:10.37,2013-08-16 22:32:00,
2013-08-16 17:37:00,81.0,64.8,27.20,South,180,4.6,4.6,58,0.00,CLR,,0.00,WeatherDisplay:10.37,2013-08-16 22:37:00,
2013-08-16 17:42:00,81.0,64.8,27.20,South,180,5.8,5.8,58,0.00,CLR,,0.00,WeatherDisplay:10.37,2013-08-16 22:42:00,
2013-08-16 17:47:00,81.1,65.0,27.19,East,90,3.5,3.5,58,0.00,CLR,,0.00,WeatherDisplay:10.37,2013-08-16 22:47:00,
2013-08-16 17:52:00,81.1,65.5,27.19,South,180,3.5,3.5,59,0.00,CLR,,0.00,WeatherDisplay:10.37,2013-08-16 22:52:00,
2013-08-16 17:57:00,81.1,65.0,27.19,South,180,4.6,4.6,58,0.00,CLR,,0.00,WeatherDisplay:10.37,2013-08-16 22:57:00,
2013-08-16 18:02:00,81.1,65.5,27.19,SW,225,3.5,3.5,59,0.00,CLR,,0.00,WeatherDisplay:10.37,2013-08-16 23:02:00,
2013-08-16 18:07:00,81.1,65.0,27.19,NE,45,5.8,5.8,58,0.00,CLR,,0.00,WeatherDisplay:10.37,2013-08-16 23:07:00,
2013-08-16 18:12:00,81.1,65.9,27.19,SW,225,4.6,4.6,60,0.00,CLR,,0.00,WeatherDisplay:10.37,2013-08-16 23:12:00,
2013-08-16 18:17:00,81.0,64.8,27.19,South,180,2.3,3.1,58,0.00,CLR,,0.00,WeatherDisplay:10.37,2013-08-16 23:17:00,
2013-08-16 18:22:00,80.8,64.6,27.19,SE,135,5.8,5.8,58,0.00,CLR,,0.00,WeatherDisplay:10.37,2013-08-16 23:22:00,
2013-08-16 18:27:00,80.8,64.1,27.19,NE,45,3.5,3.5,57,0.00,CLR,,0.00,WeatherDisplay:10.37,2013-08-16 23:27:00,
2013-08-16 18:32:00,80.8,64.6,27.19,SE,135,3.5,3.5,58,0.00,CLR,,0.00,WeatherDisplay:10.37,2013-08-16 23:32:00,
2013-08-16 18:37:00,80.8,65.1,27.19,South,180,6.0,6.0,59,0.00,CLR,,0.00,WeatherDisplay:10.37,2013-08-16 23:37:00,
2013-08-16 18:42:00,80.8,64.6,27.19,SW,225,3.5,3.5,58,0.00,CLR,,0.00,WeatherDisplay:10.37,2013-08-16 23:42:00,
2013-08-16 18:47:00,80.6,64.9,27.19,SE,135,2.3,2.3,59,0.00,CLR,,0.00,WeatherDisplay:10.37,2013-08-16 23:47:00,
2013-08-16 18:52:00,80.6,64.9,27.19,WNW,292,2.3,0.0,59,0.00,CLR,,0.00,WeatherDisplay:10.37,2013-08-16 23:52:00,
2013-08-16 18:57:00,80.6,64.9,27.19,NE,45,2.3,2.3,59,0.00,CLR,,0.00,WeatherDisplay:10.37,2013-08-16 23:57:00,
2013-08-16 19:02:00,80.6,64.9,27.19,SE,135,2.3,0.0,59,0.00,CLR,,0.00,WeatherDisplay:10.37,2013-08-17 00:02:00,
2013-08-16 19:07:00,80.6,64.9,27.19,SW,225,2.3,0.0,59,0.00,CLR,,0.00,WeatherDisplay:10.37,2013-08-17 00:07:00,
2013-08-16 19:12:00,80.4,65.7,27.19,East,90,0.0,0.0,61,0.00,CLR,,0.00,WeatherDisplay:10.37,2013-08-17 00:12:00,
2013-08-16 19:18:00,80.2,65.6,27.19,SW,225,2.3,0.0,61,0.00,CLR,,0.00,WeatherDisplay:10.37,2013-08-17 00:18:00,
2013-08-16 19:23:00,80.1,65.9,27.18,SW,225,1.1,1.1,62,0.00,CLR,,0.00,WeatherDisplay:10.37,2013-08-17 00:23:00,
2013-08-16 19:28:00,79.7,65.5,27.19,NW,315,1.1,1.1,62,0.00,CLR,,0.00,WeatherDisplay:10.37,2013-08-17 00:28:00,
2013-08-16 19:33:00,79.5,64.9,27.19,SE,135,2.3,2.3,61,0.00,CLR,,0.00,WeatherDisplay:10.37,2013-08-17 00:33:00,
2013-08-16 19:38:00,79.2,65.0,27.19,SSW,202,1.1,0.0,62,0.00,CLR,,0.00,WeatherDisplay:10.37,2013-08-17 00:38:00,
2013-08-16 19:43:00,78.8,64.7,27.19,South,180,1.1,0.0,62,0.00,CLR,,0.00,WeatherDisplay:10.37,2013-08-17 00:43:00,
2013-08-16 19:48:00,78.3,65.1,27.19,South,180,2.3,0.0,64,0.00,CLR,,0.00,WeatherDisplay:10.37,2013-08-17 00:48:00,
2013-08-16 19:53:00,78.1,64.9,27.19,SW,225,0.0,0.0,64,0.00,CLR,,0.00,WeatherDisplay:10.37,2013-08-17 00:53:00,
2013-08-16 19:58:00,77.7,64.6,27.19,East,90,1.1,0.0,64,0.00,CLR,,0.00,WeatherDisplay:10.37,2013-08-17 00:58:00,
2013-08-16 20:03:00,77.4,64.7,27.19,SE,135,0.0,0.0,65,0.00,CLR,,0.00,WeatherDisplay:10.37,2013-08-17 01:03:00,
2013-08-16 20:08:00,77.2,64.5,27.19,East,90,1.1,0.0,65,0.00,CLR,,0.00,WeatherDisplay:10.37,2013-08-17 01:08:00,
2013-08-16 20:13:00,77.0,64.8,27.20,SE,135,1.1,0.0,66,0.00,CLR,,0.00,WeatherDisplay:10.37,2013-08-17 01:13:00,
2013-08-16 20:18:00,76.6,64.9,27.19,NW,315,1.1,0.0,67,0.00,CLR,,0.00,WeatherDisplay:10.37,2013-08-17 01:18:00,
2013-08-16 20:23:00,76.3,64.9,27.19,NE,45,1.1,0.0,68,0.00,CLR,,0.00,WeatherDisplay:10.37,2013-08-17 01:23:00,
2013-08-16 20:28:00,76.1,64.8,27.19,SE,135,1.1,0.0,68,0.00,CLR,,0.00,WeatherDisplay:10.37,2013-08-17 01:28:00,
2013-08-16 20:33:00,75.7,64.8,27.19,SE,135,0.0,0.0,69,0.00,CLR,,0.00,WeatherDisplay:10.37,2013-08-17 01:33:00,
2013-08-16 20:38:00,75.6,64.7,27.19,NE,45,0.0,0.0,69,0.00,CLR,,0.00,WeatherDisplay:10.37,2013-08-17 01:38:00,
2013-08-16 20:43:00,75.4,64.9,27.20,North,0,1.1,0.0,70,0.00,CLR,,0.00,WeatherDisplay:10.37,2013-08-17 01:43:00,
2013-08-16 20:48:00,75.2,64.7,27.20,East,90,0.0,0.0,70,0.00,CLR,,0.00,WeatherDisplay:10.37,2013-08-17 01:48:00,
2013-08-16 20:53:00,74.8,64.8,27.20,NW,315,1.1,0.0,71,0.00,CLR,,0.00,WeatherDisplay:10.37,2013-08-17 01:53:00,
2013-08-16 20:58:00,74.7,65.0,27.20,East,90,1.1,0.0,72,0.00,CLR,,0.00,WeatherDisplay:10.37,2013-08-17 01:58:00,
2013-08-16 21:03:00,74.7,65.0,27.20,NW,315,2.3,2.3,72,0.00,CLR,,0.00,WeatherDisplay:10.37,2013-08-17 02:03:00,
2013-08-16 21:08:00,74.7,65.0,27.21,NW,315,2.3,2.3,72,0.00,CLR,,0.00,WeatherDisplay:10.37,2013-08-17 02:08:00,
2013-08-16 21:13:00,73.9,65.1,27.21,East,90,0.0,0.0,74,0.00,CLR,,0.00,WeatherDisplay:10.37,2013-08-17 02:13:00,
2013-08-16 21:18:00,73.6,65.2,27.21,SW,225,2.3,0.0,75,0.00,CLR,,0.00,WeatherDisplay:10.37,2013-08-17 02:18:00,
2013-08-16 21:23:00,73.0,64.3,27.21,South,180,1.1,0.0,74,0.00,CLR,,0.00,WeatherDisplay:10.37,2013-08-17 02:23:00,
2013-08-16 21:28:00,73.0,64.3,27.21,NW,315,1.1,0.0,74,0.00,CLR,,0.00,WeatherDisplay:10.37,2013-08-17 02:28:00,
2013-08-16 21:33:00,72.7,64.3,27.22,East,90,1.1,0.0,75,0.00,CLR,,0.00,WeatherDisplay:10.37,2013-08-17 02:33:00,
2013-08-16 21:38:00,72.3,64.3,27.22,South,180,1.1,1.1,76,0.00,CLR,,0.00,WeatherDisplay:10.37,2013-08-17 02:38:00,
2013-08-16 21:43:00,72.0,64.7,27.22,South,180,3.5,3.5,78,0.00,CLR,,0.00,WeatherDisplay:10.37,2013-08-17 02:43:00,
2013-08-16 21:48:00,71.8,64.9,27.22,South,180,3.8,3.8,79,0.00,CLR,,0.00,WeatherDisplay:10.37,2013-08-17 02:48:00,
2013-08-16 21:53:00,71.4,64.9,27.22,East,90,1.1,1.1,80,0.00,CLR,,0.00,WeatherDisplay:10.37,2013-08-17 02:53:00,
2013-08-16 21:58:00,71.2,65.1,27.23,East,90,2.3,2.3,81,0.00,CLR,,0.00,WeatherDisplay:10.37,2013-08-17 02:58:00,
2013-08-16 22:03:00,71.1,65.3,27.23,East,90,0.0,0.0,82,0.00,CLR,,0.00,WeatherDisplay:10.37,2013-08-17 03:03:00,
2013-08-16 22:08:00,71.1,65.3,27.23,SW,225,1.1,0.0,82,0.00,CLR,,0.00,WeatherDisplay:10.37,2013-08-17 03:08:00,
2013-08-16 22:13:00,70.7,64.9,27.23,SE,135,3.5,3.5,82,0.00,CLR,,0.00,WeatherDisplay:10.37,2013-08-17 03:13:00,
2013-08-16 22:18:00,70.5,65.1,27.24,East,90,1.1,0.0,83,0.00,CLR,,0.00,WeatherDisplay:10.37,2013-08-17 03:18:00,
2013-08-16 22:23:00,70.3,64.9,27.24,South,180,2.3,2.3,83,0.00,CLR,,0.00,WeatherDisplay:10.37,2013-08-17 03:23:00,
2013-08-16 22:28:00,70.2,65.1,27.24,East,90,1.1,0.0,84,0.00,CLR,,0.00,WeatherDisplay:10.37,2013-08-17 03:28:00,
2013-08-16 22:33:00,70.0,64.9,27.24,SE,135,3.5,3.5,84,0.00,CLR,,0.00,WeatherDisplay:10.37,2013-08-17 03:33:00,
2013-08-16 22:38:00,69.8,65.1,27.24,SE,135,2.3,2.3,85,0.00,CLR,,0.00,WeatherDisplay:10.37,2013-08-17 03:38:00,
2013-08-16 22:43:00,69.6,65.2,27.24,NW,315,3.5,3.5,86,0.00,CLR,,0.00,WeatherDisplay:10.37,2013-08-17 03:43:00,
2013-08-16 22:48:00,69.4,65.1,27.24,South,180,1.1,0.0,86,0.00,CLR,,0.00,WeatherDisplay:10.37,2013-08-17 03:48:00,
2013-08-16 22:53:00,69.3,65.2,27.24,West,270,1.1,0.0,87,0.00,CLR,,0.00,WeatherDisplay:10.37,2013-08-17 03:53:00,
2013-08-16 22:58:00,69.1,65.0,27.24,East,90,1.1,0.0,87,0.00,CLR,,0.00,WeatherDisplay:10.37,2013-08-17 03:58:00,
2013-08-16 23:01:00,69.1,65.0,27.24,North,0,1.1,0.0,87,0.00,CLR,,0.00,WeatherDisplay:10.37,2013-08-17 04:01:00,
2013-08-16 23:06:00,69.1,65.0,27.24,North,0,1.1,0.0,87,0.00,CLR,,0.00,WeatherDisplay:10.37,2013-08-17 04:06:00,
2013-08-16 23:11:00,68.7,65.0,27.24,SW,225,0.0,0.0,88,0.00,CLR,,0.00,WeatherDisplay:10.37,2013-08-17 04:11:00,
2013-08-16 23:16:00,68.5,64.8,27.25,SW,225,1.1,0.0,88,0.00,CLR,,0.00,WeatherDisplay:10.37,2013-08-17 04:16:00,
2013-08-16 23:21:00,68.5,64.8,27.25,NW,315,1.1,0.0,88,0.00,CLR,,0.00,WeatherDisplay:10.37,2013-08-17 04:21:00,
2013-08-16 23:26:00,68.4,64.7,27.25,NE,45,0.0,0.0,88,0.00,CLR,,0.00,WeatherDisplay:10.37,2013-08-17 04:26:00,
2013-08-16 23:31:00,68.2,64.8,27.25,NE,45,1.1,0.0,89,0.00,CLR,,0.00,WeatherDisplay:10.37,2013-08-17 04:31:00,
2013-08-16 23:36:00,68.2,64.8,27.25,SW,225,0.0,0.0,89,0.00,CLR,,0.00,WeatherDisplay:10.37,2013-08-17 04:36:00,
2013-08-16 23:41:00,68.0,64.6,27.25,South,180,0.0,0.0,89,0.00,CLR,,0.00,WeatherDisplay:10.37,2013-08-17 04:41:00,
2013-08-16 23:46:00,67.8,64.8,27.25,SW,225,1.1,0.0,90,0.00,CLR,,0.00,WeatherDisplay:10.37,2013-08-17 04:46:00,
2013-08-16 23:51:00,67.6,64.9,27.25,North,0,1.1,0.0,91,0.00,CLR,,0.00,WeatherDisplay:10.37,2013-08-17 04:51:00,
2013-08-16 23:56:00,67.5,64.7,27.25,SE,135,1.1,0.0,91,0.00,CLR,,0.00,WeatherDisplay:10.37,2013-08-17 04:56:00,